sensor_id;sensor_type;location;lat;lon;timestamp;P1;durP1;ratioP1;P2;durP2;ratioP2
21661;SDS011;10992;48.170;8.596;2024-01-10T00:02:05;32.05;;;18.40;;
21661;SDS011;10992;48.170;8.596;2024-01-10T00:04:31;34.45;;;19.27;;
21661;SDS011;10992;48.170;8.596;2024-01-10T00:06:59;33.70;;;18.92;;
21661;SDS011;10992;48.170;8.596;2024-01-10T00:09:26;34.35;;;19.45;;
21661;SDS011;10992;48.170;8.596;2024-01-10T00:11:53;32.20;;;19.50;;
21661;SDS011;10992;48.170;8.596;2024-01-10T00:14:19;36.25;;;20.33;;
21661;SDS011;10992;48.170;8.596;2024-01-10T00:16:46;32.53;;;19.42;;
21661;SDS011;10992;48.170;8.596;2024-01-10T00:19:13;33.78;;;19.35;;
21661;SDS011;10992;48.170;8.596;2024-01-10T00:21:40;35.17;;;18.67;;
21661;SDS011;10992;48.170;8.596;2024-01-10T00:24:07;36.40;;;19.80;;
21661;SDS011;10992;48.170;8.596;2024-01-10T00:26:37;33.35;;;18.95;;
21661;SDS011;10992;48.170;8.596;2024-01-10T00:29:04;33.00;;;19.35;;
21661;SDS011;10992;48.170;8.596;2024-01-10T00:31:31;34.20;;;18.90;;
21661;SDS011;10992;48.170;8.596;2024-01-10T00:33:58;33.30;;;18.70;;
21661;SDS011;10992;48.170;8.596;2024-01-10T00:36:25;35.78;;;19.65;;
21661;SDS011;10992;48.170;8.596;2024-01-10T00:38:53;34.38;;;19.60;;
21661;SDS011;10992;48.170;8.596;2024-01-10T00:41:20;36.83;;;20.15;;
21661;SDS011;10992;48.170;8.596;2024-01-10T00:43:46;33.05;;;19.13;;
21661;SDS011;10992;48.170;8.596;2024-01-10T00:46:13;40.13;;;20.60;;
21661;SDS011;10992;48.170;8.596;2024-01-10T00:48:40;35.92;;;21.35;;
21661;SDS011;10992;48.170;8.596;2024-01-10T00:51:07;33.72;;;19.40;;
21661;SDS011;10992;48.170;8.596;2024-01-10T00:53:35;35.65;;;19.63;;
21661;SDS011;10992;48.170;8.596;2024-01-10T00:56:05;38.65;;;21.05;;
21661;SDS011;10992;48.170;8.596;2024-01-10T00:58:32;34.53;;;20.48;;
21661;SDS011;10992;48.170;8.596;2024-01-10T01:00:59;33.47;;;19.58;;
21661;SDS011;10992;48.170;8.596;2024-01-10T01:03:26;36.78;;;21.17;;
21661;SDS011;10992;48.170;8.596;2024-01-10T01:05:53;36.35;;;20.45;;
21661;SDS011;10992;48.170;8.596;2024-01-10T01:08:20;36.10;;;20.02;;
21661;SDS011;10992;48.170;8.596;2024-01-10T01:10:47;38.08;;;20.90;;
21661;SDS011;10992;48.170;8.596;2024-01-10T01:13:14;38.60;;;21.35;;
21661;SDS011;10992;48.170;8.596;2024-01-10T01:15:41;42.70;;;21.70;;
21661;SDS011;10992;48.170;8.596;2024-01-10T01:18:08;37.55;;;20.65;;
21661;SDS011;10992;48.170;8.596;2024-01-10T01:20:36;36.88;;;21.45;;
21661;SDS011;10992;48.170;8.596;2024-01-10T01:23:03;40.40;;;20.65;;
21661;SDS011;10992;48.170;8.596;2024-01-10T01:25:30;60.10;;;29.98;;
21661;SDS011;10992;48.170;8.596;2024-01-10T01:27:57;51.97;;;28.67;;
21661;SDS011;10992;48.170;8.596;2024-01-10T01:30:24;38.50;;;21.13;;
21661;SDS011;10992;48.170;8.596;2024-01-10T01:32:51;36.92;;;20.27;;
21661;SDS011;10992;48.170;8.596;2024-01-10T01:35:18;31.90;;;19.60;;
21661;SDS011;10992;48.170;8.596;2024-01-10T01:37:49;38.13;;;20.58;;
21661;SDS011;10992;48.170;8.596;2024-01-10T01:40:17;35.20;;;19.38;;
21661;SDS011;10992;48.170;8.596;2024-01-10T01:42:45;38.15;;;21.13;;
21661;SDS011;10992;48.170;8.596;2024-01-10T01:45:12;33.70;;;19.45;;
21661;SDS011;10992;48.170;8.596;2024-01-10T01:47:40;38.30;;;20.42;;
21661;SDS011;10992;48.170;8.596;2024-01-10T01:50:08;40.30;;;21.27;;
21661;SDS011;10992;48.170;8.596;2024-01-10T01:52:35;35.17;;;19.67;;
21661;SDS011;10992;48.170;8.596;2024-01-10T01:55:05;38.90;;;22.25;;
21661;SDS011;10992;48.170;8.596;2024-01-10T01:57:34;38.92;;;21.38;;
21661;SDS011;10992;48.170;8.596;2024-01-10T02:00:03;34.65;;;20.05;;
21661;SDS011;10992;48.170;8.596;2024-01-10T02:02:30;37.33;;;22.00;;
21661;SDS011;10992;48.170;8.596;2024-01-10T02:04:58;41.63;;;20.77;;
21661;SDS011;10992;48.170;8.596;2024-01-10T02:07:26;36.85;;;21.60;;
21661;SDS011;10992;48.170;8.596;2024-01-10T02:09:53;40.40;;;23.50;;
21661;SDS011;10992;48.170;8.596;2024-01-10T02:12:20;41.10;;;21.80;;
21661;SDS011;10992;48.170;8.596;2024-01-10T02:14:47;41.55;;;21.70;;
21661;SDS011;10992;48.170;8.596;2024-01-10T02:17:14;37.08;;;20.80;;
21661;SDS011;10992;48.170;8.596;2024-01-10T02:19:43;39.92;;;21.23;;
21661;SDS011;10992;48.170;8.596;2024-01-10T02:22:10;38.55;;;21.58;;
21661;SDS011;10992;48.170;8.596;2024-01-10T02:24:37;36.00;;;20.98;;
21661;SDS011;10992;48.170;8.596;2024-01-10T02:27:04;36.47;;;21.77;;
21661;SDS011;10992;48.170;8.596;2024-01-10T02:29:31;39.38;;;21.50;;
21661;SDS011;10992;48.170;8.596;2024-01-10T02:31:58;36.95;;;21.48;;
21661;SDS011;10992;48.170;8.596;2024-01-10T02:34:25;38.38;;;21.00;;
21661;SDS011;10992;48.170;8.596;2024-01-10T02:36:52;39.05;;;21.05;;
21661;SDS011;10992;48.170;8.596;2024-01-10T02:39:19;38.92;;;21.35;;
21661;SDS011;10992;48.170;8.596;2024-01-10T02:41:46;37.15;;;20.48;;
21661;SDS011;10992;48.170;8.596;2024-01-10T02:44:13;43.30;;;21.73;;
21661;SDS011;10992;48.170;8.596;2024-01-10T02:46:40;39.15;;;22.60;;
21661;SDS011;10992;48.170;8.596;2024-01-10T02:49:07;37.95;;;22.48;;
21661;SDS011;10992;48.170;8.596;2024-01-10T02:51:34;38.35;;;21.02;;
21661;SDS011;10992;48.170;8.596;2024-01-10T02:54:01;39.47;;;21.50;;
21661;SDS011;10992;48.170;8.596;2024-01-10T02:56:28;39.25;;;22.02;;
21661;SDS011;10992;48.170;8.596;2024-01-10T02:58:55;38.58;;;21.30;;
21661;SDS011;10992;48.170;8.596;2024-01-10T03:01:22;38.50;;;21.23;;
21661;SDS011;10992;48.170;8.596;2024-01-10T03:03:49;40.72;;;22.52;;
21661;SDS011;10992;48.170;8.596;2024-01-10T03:06:15;39.25;;;21.38;;
21661;SDS011;10992;48.170;8.596;2024-01-10T03:08:42;39.05;;;20.60;;
21661;SDS011;10992;48.170;8.596;2024-01-10T03:11:09;38.45;;;21.42;;
21661;SDS011;10992;48.170;8.596;2024-01-10T03:13:36;37.58;;;20.80;;
21661;SDS011;10992;48.170;8.596;2024-01-10T03:16:05;35.13;;;19.95;;
21661;SDS011;10992;48.170;8.596;2024-01-10T03:18:32;40.03;;;22.38;;
21661;SDS011;10992;48.170;8.596;2024-01-10T03:20:59;38.75;;;20.95;;
21661;SDS011;10992;48.170;8.596;2024-01-10T03:23:26;40.65;;;22.75;;
21661;SDS011;10992;48.170;8.596;2024-01-10T03:25:54;38.80;;;21.88;;
21661;SDS011;10992;48.170;8.596;2024-01-10T03:28:22;38.03;;;21.58;;
21661;SDS011;10992;48.170;8.596;2024-01-10T03:30:50;34.65;;;20.67;;
21661;SDS011;10992;48.170;8.596;2024-01-10T03:33:17;36.80;;;21.88;;
21661;SDS011;10992;48.170;8.596;2024-01-10T03:35:44;40.30;;;22.00;;
21661;SDS011;10992;48.170;8.596;2024-01-10T03:38:11;38.47;;;20.92;;
21661;SDS011;10992;48.170;8.596;2024-01-10T03:40:38;38.50;;;22.35;;
21661;SDS011;10992;48.170;8.596;2024-01-10T03:43:05;39.85;;;22.88;;
21661;SDS011;10992;48.170;8.596;2024-01-10T03:45:32;41.05;;;23.02;;
21661;SDS011;10992;48.170;8.596;2024-01-10T03:47:59;38.55;;;21.92;;
21661;SDS011;10992;48.170;8.596;2024-01-10T03:50:26;38.92;;;21.48;;
21661;SDS011;10992;48.170;8.596;2024-01-10T03:52:53;37.85;;;22.17;;
21661;SDS011;10992;48.170;8.596;2024-01-10T03:55:20;35.95;;;22.65;;
21661;SDS011;10992;48.170;8.596;2024-01-10T03:57:47;38.92;;;21.77;;
21661;SDS011;10992;48.170;8.596;2024-01-10T04:00:14;41.75;;;22.52;;
21661;SDS011;10992;48.170;8.596;2024-01-10T04:02:41;41.25;;;23.00;;
21661;SDS011;10992;48.170;8.596;2024-01-10T04:05:08;40.60;;;22.20;;
21661;SDS011;10992;48.170;8.596;2024-01-10T04:07:36;38.35;;;21.92;;
21661;SDS011;10992;48.170;8.596;2024-01-10T04:10:05;43.78;;;22.17;;
21661;SDS011;10992;48.170;8.596;2024-01-10T04:12:34;39.75;;;21.40;;
21661;SDS011;10992;48.170;8.596;2024-01-10T04:15:01;42.58;;;23.10;;
21661;SDS011;10992;48.170;8.596;2024-01-10T04:17:27;42.80;;;24.02;;
21661;SDS011;10992;48.170;8.596;2024-01-10T04:19:54;43.30;;;24.50;;
21661;SDS011;10992;48.170;8.596;2024-01-10T04:22:23;42.72;;;22.10;;
21661;SDS011;10992;48.170;8.596;2024-01-10T04:24:51;46.50;;;24.73;;
21661;SDS011;10992;48.170;8.596;2024-01-10T04:27:18;40.72;;;22.90;;
21661;SDS011;10992;48.170;8.596;2024-01-10T04:29:45;46.97;;;24.63;;
21661;SDS011;10992;48.170;8.596;2024-01-10T04:32:12;42.17;;;23.10;;
21661;SDS011;10992;48.170;8.596;2024-01-10T04:34:39;41.45;;;24.00;;
21661;SDS011;10992;48.170;8.596;2024-01-10T04:37:06;47.03;;;23.33;;
21661;SDS011;10992;48.170;8.596;2024-01-10T04:39:33;40.13;;;22.35;;
21661;SDS011;10992;48.170;8.596;2024-01-10T04:42:00;40.38;;;23.02;;
21661;SDS011;10992;48.170;8.596;2024-01-10T04:44:28;43.53;;;23.42;;
21661;SDS011;10992;48.170;8.596;2024-01-10T04:46:55;44.55;;;24.45;;
21661;SDS011;10992;48.170;8.596;2024-01-10T04:49:22;43.35;;;24.00;;
21661;SDS011;10992;48.170;8.596;2024-01-10T04:51:50;43.33;;;24.52;;
21661;SDS011;10992;48.170;8.596;2024-01-10T04:54:17;41.38;;;24.77;;
21661;SDS011;10992;48.170;8.596;2024-01-10T04:56:44;45.10;;;24.63;;
21661;SDS011;10992;48.170;8.596;2024-01-10T04:59:11;41.83;;;23.33;;
21661;SDS011;10992;48.170;8.596;2024-01-10T05:01:38;42.10;;;23.23;;
21661;SDS011;10992;48.170;8.596;2024-01-10T05:04:06;43.65;;;25.20;;
21661;SDS011;10992;48.170;8.596;2024-01-10T05:06:33;45.00;;;23.60;;
21661;SDS011;10992;48.170;8.596;2024-01-10T05:09:00;45.40;;;23.63;;
21661;SDS011;10992;48.170;8.596;2024-01-10T05:11:26;45.35;;;24.17;;
21661;SDS011;10992;48.170;8.596;2024-01-10T05:13:53;42.35;;;24.30;;
21661;SDS011;10992;48.170;8.596;2024-01-10T05:16:21;43.53;;;24.05;;
21661;SDS011;10992;48.170;8.596;2024-01-10T05:18:48;43.45;;;24.42;;
21661;SDS011;10992;48.170;8.596;2024-01-10T05:21:14;44.20;;;24.08;;
21661;SDS011;10992;48.170;8.596;2024-01-10T05:23:41;43.13;;;24.55;;
21661;SDS011;10992;48.170;8.596;2024-01-10T05:26:08;48.15;;;23.63;;
21661;SDS011;10992;48.170;8.596;2024-01-10T05:28:35;44.33;;;24.13;;
21661;SDS011;10992;48.170;8.596;2024-01-10T05:31:02;45.70;;;25.35;;
21661;SDS011;10992;48.170;8.596;2024-01-10T05:33:29;43.92;;;25.35;;
21661;SDS011;10992;48.170;8.596;2024-01-10T05:35:56;41.97;;;23.17;;
21661;SDS011;10992;48.170;8.596;2024-01-10T05:38:24;44.05;;;23.45;;
21661;SDS011;10992;48.170;8.596;2024-01-10T05:40:51;43.13;;;24.10;;
21661;SDS011;10992;48.170;8.596;2024-01-10T05:43:18;41.65;;;22.58;;
21661;SDS011;10992;48.170;8.596;2024-01-10T05:45:45;39.80;;;22.23;;
21661;SDS011;10992;48.170;8.596;2024-01-10T05:48:12;47.63;;;24.92;;
21661;SDS011;10992;48.170;8.596;2024-01-10T05:50:39;46.17;;;25.35;;
21661;SDS011;10992;48.170;8.596;2024-01-10T05:53:06;41.55;;;23.95;;
21661;SDS011;10992;48.170;8.596;2024-01-10T05:55:35;42.28;;;23.60;;
21661;SDS011;10992;48.170;8.596;2024-01-10T05:58:03;40.25;;;23.58;;
21661;SDS011;10992;48.170;8.596;2024-01-10T06:00:30;46.95;;;25.88;;
21661;SDS011;10992;48.170;8.596;2024-01-10T06:02:57;43.60;;;25.10;;
21661;SDS011;10992;48.170;8.596;2024-01-10T06:05:24;39.75;;;24.27;;
21661;SDS011;10992;48.170;8.596;2024-01-10T06:07:51;44.35;;;24.50;;
21661;SDS011;10992;48.170;8.596;2024-01-10T06:10:18;41.58;;;23.67;;
21661;SDS011;10992;48.170;8.596;2024-01-10T06:12:46;38.85;;;24.48;;
21661;SDS011;10992;48.170;8.596;2024-01-10T06:15:12;42.90;;;23.60;;
21661;SDS011;10992;48.170;8.596;2024-01-10T06:17:39;43.15;;;24.35;;
21661;SDS011;10992;48.170;8.596;2024-01-10T06:20:07;42.88;;;23.77;;
21661;SDS011;10992;48.170;8.596;2024-01-10T06:22:35;46.53;;;25.33;;
21661;SDS011;10992;48.170;8.596;2024-01-10T06:25:02;44.92;;;26.60;;
21661;SDS011;10992;48.170;8.596;2024-01-10T06:27:30;51.03;;;27.45;;
21661;SDS011;10992;48.170;8.596;2024-01-10T06:29:57;48.72;;;25.80;;
21661;SDS011;10992;48.170;8.596;2024-01-10T06:32:24;47.17;;;27.90;;
21661;SDS011;10992;48.170;8.596;2024-01-10T06:34:52;46.63;;;25.55;;
21661;SDS011;10992;48.170;8.596;2024-01-10T06:37:19;52.38;;;27.00;;
21661;SDS011;10992;48.170;8.596;2024-01-10T06:39:46;50.03;;;26.60;;
21661;SDS011;10992;48.170;8.596;2024-01-10T06:42:13;48.33;;;25.58;;
21661;SDS011;10992;48.170;8.596;2024-01-10T06:44:40;43.33;;;23.73;;
21661;SDS011;10992;48.170;8.596;2024-01-10T06:47:07;44.88;;;24.77;;
21661;SDS011;10992;48.170;8.596;2024-01-10T06:49:34;41.72;;;25.17;;
21661;SDS011;10992;48.170;8.596;2024-01-10T06:52:01;45.45;;;25.25;;
21661;SDS011;10992;48.170;8.596;2024-01-10T06:54:28;44.05;;;24.88;;
21661;SDS011;10992;48.170;8.596;2024-01-10T06:56:55;41.00;;;22.27;;
21661;SDS011;10992;48.170;8.596;2024-01-10T06:59:22;41.25;;;23.15;;
21661;SDS011;10992;48.170;8.596;2024-01-10T07:01:52;48.05;;;24.58;;
21661;SDS011;10992;48.170;8.596;2024-01-10T07:04:20;41.53;;;24.40;;
21661;SDS011;10992;48.170;8.596;2024-01-10T07:06:50;43.92;;;24.77;;
21661;SDS011;10992;48.170;8.596;2024-01-10T07:09:17;47.70;;;25.10;;
21661;SDS011;10992;48.170;8.596;2024-01-10T07:11:46;45.50;;;25.40;;
21661;SDS011;10992;48.170;8.596;2024-01-10T07:14:14;48.78;;;26.17;;
21661;SDS011;10992;48.170;8.596;2024-01-10T07:16:42;51.85;;;28.33;;
21661;SDS011;10992;48.170;8.596;2024-01-10T07:19:12;48.55;;;27.38;;
21661;SDS011;10992;48.170;8.596;2024-01-10T07:21:40;51.97;;;28.60;;
21661;SDS011;10992;48.170;8.596;2024-01-10T07:24:08;50.90;;;26.38;;
21661;SDS011;10992;48.170;8.596;2024-01-10T07:26:36;48.28;;;27.88;;
21661;SDS011;10992;48.170;8.596;2024-01-10T07:29:03;49.35;;;26.60;;
21661;SDS011;10992;48.170;8.596;2024-01-10T07:31:35;57.80;;;30.08;;
21661;SDS011;10992;48.170;8.596;2024-01-10T07:34:02;53.63;;;29.70;;
21661;SDS011;10992;48.170;8.596;2024-01-10T07:36:32;55.28;;;29.88;;
21661;SDS011;10992;48.170;8.596;2024-01-10T07:39:02;51.92;;;30.70;;
21661;SDS011;10992;48.170;8.596;2024-01-10T07:41:30;59.75;;;29.13;;
21661;SDS011;10992;48.170;8.596;2024-01-10T07:43:57;56.08;;;32.90;;
21661;SDS011;10992;48.170;8.596;2024-01-10T07:46:24;71.30;;;39.40;;
21661;SDS011;10992;48.170;8.596;2024-01-10T07:48:53;57.67;;;30.45;;
21661;SDS011;10992;48.170;8.596;2024-01-10T07:51:20;54.10;;;29.88;;
21661;SDS011;10992;48.170;8.596;2024-01-10T07:53:47;58.42;;;30.85;;
21661;SDS011;10992;48.170;8.596;2024-01-10T07:56:14;56.35;;;30.05;;
21661;SDS011;10992;48.170;8.596;2024-01-10T07:58:41;63.58;;;31.13;;
21661;SDS011;10992;48.170;8.596;2024-01-10T08:01:08;58.63;;;31.27;;
21661;SDS011;10992;48.170;8.596;2024-01-10T08:03:37;61.58;;;30.95;;
21661;SDS011;10992;48.170;8.596;2024-01-10T08:06:05;68.80;;;32.67;;
21661;SDS011;10992;48.170;8.596;2024-01-10T08:08:45;72.15;;;34.55;;
21661;SDS011;10992;48.170;8.596;2024-01-10T08:11:12;68.28;;;35.72;;
21661;SDS011;10992;48.170;8.596;2024-01-10T08:13:39;72.60;;;35.08;;
21661;SDS011;10992;48.170;8.596;2024-01-10T08:16:06;76.38;;;34.63;;
21661;SDS011;10992;48.170;8.596;2024-01-10T08:18:34;83.68;;;34.53;;
21661;SDS011;10992;48.170;8.596;2024-01-10T08:21:01;81.93;;;34.80;;
21661;SDS011;10992;48.170;8.596;2024-01-10T08:23:30;77.55;;;34.65;;
21661;SDS011;10992;48.170;8.596;2024-01-10T08:25:57;75.97;;;34.47;;
21661;SDS011;10992;48.170;8.596;2024-01-10T08:28:24;85.13;;;36.28;;
21661;SDS011;10992;48.170;8.596;2024-01-10T08:30:52;74.68;;;36.17;;
21661;SDS011;10992;48.170;8.596;2024-01-10T08:33:25;66.47;;;32.25;;
21661;SDS011;10992;48.170;8.596;2024-01-10T08:35:52;73.90;;;32.67;;
21661;SDS011;10992;48.170;8.596;2024-01-10T08:38:20;71.75;;;34.13;;
21661;SDS011;10992;48.170;8.596;2024-01-10T08:40:47;72.93;;;33.25;;
21661;SDS011;10992;48.170;8.596;2024-01-10T08:43:14;72.32;;;34.10;;
21661;SDS011;10992;48.170;8.596;2024-01-10T08:45:40;76.65;;;33.05;;
21661;SDS011;10992;48.170;8.596;2024-01-10T08:48:07;75.40;;;33.75;;
21661;SDS011;10992;48.170;8.596;2024-01-10T08:50:36;77.35;;;34.53;;
21661;SDS011;10992;48.170;8.596;2024-01-10T08:53:03;68.75;;;34.03;;
21661;SDS011;10992;48.170;8.596;2024-01-10T08:55:32;67.43;;;33.17;;
21661;SDS011;10992;48.170;8.596;2024-01-10T08:58:00;59.22;;;30.73;;
21661;SDS011;10992;48.170;8.596;2024-01-10T09:00:27;64.45;;;31.35;;
21661;SDS011;10992;48.170;8.596;2024-01-10T09:02:55;60.05;;;30.73;;
21661;SDS011;10992;48.170;8.596;2024-01-10T09:05:21;63.60;;;29.92;;
21661;SDS011;10992;48.170;8.596;2024-01-10T09:07:49;68.50;;;32.03;;
21661;SDS011;10992;48.170;8.596;2024-01-10T09:10:16;65.70;;;31.23;;
21661;SDS011;10992;48.170;8.596;2024-01-10T09:12:43;64.90;;;31.45;;
21661;SDS011;10992;48.170;8.596;2024-01-10T09:15:12;65.80;;;32.28;;
21661;SDS011;10992;48.170;8.596;2024-01-10T09:17:41;60.80;;;31.58;;
21661;SDS011;10992;48.170;8.596;2024-01-10T09:20:08;69.50;;;32.05;;
21661;SDS011;10992;48.170;8.596;2024-01-10T09:22:39;62.80;;;30.50;;
21661;SDS011;10992;48.170;8.596;2024-01-10T09:25:06;66.88;;;30.55;;
21661;SDS011;10992;48.170;8.596;2024-01-10T09:27:33;67.53;;;30.20;;
21661;SDS011;10992;48.170;8.596;2024-01-10T09:30:01;63.03;;;31.25;;
21661;SDS011;10992;48.170;8.596;2024-01-10T09:32:29;63.92;;;28.85;;
21661;SDS011;10992;48.170;8.596;2024-01-10T09:34:56;62.42;;;29.70;;
21661;SDS011;10992;48.170;8.596;2024-01-10T09:37:23;69.32;;;32.45;;
21661;SDS011;10992;48.170;8.596;2024-01-10T09:39:50;64.78;;;32.05;;
21661;SDS011;10992;48.170;8.596;2024-01-10T09:42:16;66.60;;;29.27;;
21661;SDS011;10992;48.170;8.596;2024-01-10T09:44:44;65.65;;;28.88;;
21661;SDS011;10992;48.170;8.596;2024-01-10T09:47:12;57.88;;;29.92;;
21661;SDS011;10992;48.170;8.596;2024-01-10T09:49:41;59.85;;;28.23;;
21661;SDS011;10992;48.170;8.596;2024-01-10T09:52:13;54.88;;;26.73;;
21661;SDS011;10992;48.170;8.596;2024-01-10T09:54:56;57.72;;;26.88;;
21661;SDS011;10992;48.170;8.596;2024-01-10T09:57:24;51.50;;;26.20;;
21661;SDS011;10992;48.170;8.596;2024-01-10T09:59:52;48.35;;;24.83;;
21661;SDS011;10992;48.170;8.596;2024-01-10T10:02:35;49.97;;;24.30;;
21661;SDS011;10992;48.170;8.596;2024-01-10T10:05:23;50.47;;;25.75;;
21661;SDS011;10992;48.170;8.596;2024-01-10T10:07:51;46.55;;;24.90;;
21661;SDS011;10992;48.170;8.596;2024-01-10T10:10:19;46.72;;;24.30;;
21661;SDS011;10992;48.170;8.596;2024-01-10T10:12:47;45.45;;;22.38;;
21661;SDS011;10992;48.170;8.596;2024-01-10T10:15:19;43.63;;;23.60;;
21661;SDS011;10992;48.170;8.596;2024-01-10T10:17:53;45.35;;;23.25;;
21661;SDS011;10992;48.170;8.596;2024-01-10T10:20:21;44.60;;;22.45;;
21661;SDS011;10992;48.170;8.596;2024-01-10T10:25:42;40.25;;;20.63;;
21661;SDS011;10992;48.170;8.596;2024-01-10T10:28:11;39.22;;;21.05;;
21661;SDS011;10992;48.170;8.596;2024-01-10T10:30:54;42.60;;;22.77;;
21661;SDS011;10992;48.170;8.596;2024-01-10T10:33:22;34.40;;;18.20;;
21661;SDS011;10992;48.170;8.596;2024-01-10T10:35:49;32.72;;;16.40;;
21661;SDS011;10992;48.170;8.596;2024-01-10T10:38:21;32.00;;;16.70;;
21661;SDS011;10992;48.170;8.596;2024-01-10T10:40:49;30.67;;;17.35;;
21661;SDS011;10992;48.170;8.596;2024-01-10T10:43:18;34.35;;;18.50;;
21661;SDS011;10992;48.170;8.596;2024-01-10T10:45:48;30.75;;;17.98;;
21661;SDS011;10992;48.170;8.596;2024-01-10T10:48:19;32.28;;;17.75;;
21661;SDS011;10992;48.170;8.596;2024-01-10T10:50:50;30.60;;;16.90;;
21661;SDS011;10992;48.170;8.596;2024-01-10T10:53:25;26.50;;;14.80;;
21661;SDS011;10992;48.170;8.596;2024-01-10T10:55:56;23.92;;;14.15;;
21661;SDS011;10992;48.170;8.596;2024-01-10T10:58:25;24.13;;;13.65;;
21661;SDS011;10992;48.170;8.596;2024-01-10T11:00:53;26.95;;;14.70;;
21661;SDS011;10992;48.170;8.596;2024-01-10T11:03:21;26.90;;;14.88;;
21661;SDS011;10992;48.170;8.596;2024-01-10T11:05:51;23.48;;;13.55;;
21661;SDS011;10992;48.170;8.596;2024-01-10T11:08:18;24.65;;;14.68;;
21661;SDS011;10992;48.170;8.596;2024-01-10T11:10:47;25.65;;;13.60;;
21661;SDS011;10992;48.170;8.596;2024-01-10T11:19:10;28.17;;;16.20;;
21661;SDS011;10992;48.170;8.596;2024-01-10T11:24:30;27.67;;;16.20;;
21661;SDS011;10992;48.170;8.596;2024-01-10T11:27:07;29.77;;;15.98;;
21661;SDS011;10992;48.170;8.596;2024-01-10T11:29:38;29.92;;;15.35;;
21661;SDS011;10992;48.170;8.596;2024-01-10T11:32:06;28.95;;;16.15;;
21661;SDS011;10992;48.170;8.596;2024-01-10T11:34:42;31.80;;;16.98;;
21661;SDS011;10992;48.170;8.596;2024-01-10T11:37:16;28.40;;;14.88;;
21661;SDS011;10992;48.170;8.596;2024-01-10T11:39:43;27.63;;;16.95;;
21661;SDS011;10992;48.170;8.596;2024-01-10T11:42:11;28.10;;;15.75;;
21661;SDS011;10992;48.170;8.596;2024-01-10T11:44:48;26.13;;;15.63;;
21661;SDS011;10992;48.170;8.596;2024-01-10T11:47:19;24.55;;;15.15;;
21661;SDS011;10992;48.170;8.596;2024-01-10T11:49:53;26.20;;;15.48;;
21661;SDS011;10992;48.170;8.596;2024-01-10T11:52:22;28.00;;;15.23;;
21661;SDS011;10992;48.170;8.596;2024-01-10T11:54:50;22.50;;;14.43;;
21661;SDS011;10992;48.170;8.596;2024-01-10T11:59:44;25.17;;;14.82;;
21661;SDS011;10992;48.170;8.596;2024-01-10T12:02:12;25.55;;;14.82;;
21661;SDS011;10992;48.170;8.596;2024-01-10T12:04:43;25.08;;;15.38;;
21661;SDS011;10992;48.170;8.596;2024-01-10T12:07:14;24.67;;;13.77;;
21661;SDS011;10992;48.170;8.596;2024-01-10T12:09:45;25.80;;;15.45;;
21661;SDS011;10992;48.170;8.596;2024-01-10T12:12:13;24.27;;;14.90;;
21661;SDS011;10992;48.170;8.596;2024-01-10T12:14:40;24.42;;;14.80;;
21661;SDS011;10992;48.170;8.596;2024-01-10T12:17:08;24.15;;;14.57;;
21661;SDS011;10992;48.170;8.596;2024-01-10T12:19:35;26.55;;;15.57;;
21661;SDS011;10992;48.170;8.596;2024-01-10T12:22:05;24.33;;;14.82;;
21661;SDS011;10992;48.170;8.596;2024-01-10T12:24:34;27.13;;;17.10;;
21661;SDS011;10992;48.170;8.596;2024-01-10T12:27:10;25.80;;;15.77;;
21661;SDS011;10992;48.170;8.596;2024-01-10T12:29:37;25.40;;;15.73;;
21661;SDS011;10992;48.170;8.596;2024-01-10T12:32:05;27.70;;;17.27;;
21661;SDS011;10992;48.170;8.596;2024-01-10T12:34:33;27.98;;;16.90;;
21661;SDS011;10992;48.170;8.596;2024-01-10T12:37:04;25.08;;;14.63;;
21661;SDS011;10992;48.170;8.596;2024-01-10T12:39:31;22.38;;;14.27;;
21661;SDS011;10992;48.170;8.596;2024-01-10T12:41:58;23.20;;;14.15;;
21661;SDS011;10992;48.170;8.596;2024-01-10T12:44:29;27.17;;;16.92;;
21661;SDS011;10992;48.170;8.596;2024-01-10T12:46:57;26.95;;;16.63;;
21661;SDS011;10992;48.170;8.596;2024-01-10T12:49:24;23.50;;;14.30;;
21661;SDS011;10992;48.170;8.596;2024-01-10T12:51:51;22.90;;;15.13;;
21661;SDS011;10992;48.170;8.596;2024-01-10T12:54:18;24.33;;;14.90;;
21661;SDS011;10992;48.170;8.596;2024-01-10T12:56:45;26.27;;;15.63;;
21661;SDS011;10992;48.170;8.596;2024-01-10T12:59:12;24.67;;;15.25;;
21661;SDS011;10992;48.170;8.596;2024-01-10T13:01:40;25.05;;;14.95;;
21661;SDS011;10992;48.170;8.596;2024-01-10T13:04:08;25.30;;;15.77;;
21661;SDS011;10992;48.170;8.596;2024-01-10T13:06:37;26.52;;;16.73;;
21661;SDS011;10992;48.170;8.596;2024-01-10T13:09:05;26.30;;;14.48;;
21661;SDS011;10992;48.170;8.596;2024-01-10T13:11:32;20.98;;;14.45;;
21661;SDS011;10992;48.170;8.596;2024-01-10T13:13:59;22.13;;;14.30;;
21661;SDS011;10992;48.170;8.596;2024-01-10T13:16:27;24.40;;;15.75;;
21661;SDS011;10992;48.170;8.596;2024-01-10T13:18:54;25.45;;;14.73;;
21661;SDS011;10992;48.170;8.596;2024-01-10T13:21:23;20.95;;;13.95;;
21661;SDS011;10992;48.170;8.596;2024-01-10T13:23:51;22.98;;;13.95;;
21661;SDS011;10992;48.170;8.596;2024-01-10T13:26:18;27.77;;;15.85;;
21661;SDS011;10992;48.170;8.596;2024-01-10T13:28:45;22.88;;;14.27;;
21661;SDS011;10992;48.170;8.596;2024-01-10T13:31:12;22.75;;;15.27;;
21661;SDS011;10992;48.170;8.596;2024-01-10T13:33:39;21.05;;;14.35;;
21661;SDS011;10992;48.170;8.596;2024-01-10T13:36:12;24.60;;;15.82;;
21661;SDS011;10992;48.170;8.596;2024-01-10T13:38:40;21.73;;;14.52;;
21661;SDS011;10992;48.170;8.596;2024-01-10T13:41:07;21.33;;;14.50;;
21661;SDS011;10992;48.170;8.596;2024-01-10T13:43:35;24.25;;;14.70;;
21661;SDS011;10992;48.170;8.596;2024-01-10T13:46:02;22.95;;;15.50;;
21661;SDS011;10992;48.170;8.596;2024-01-10T13:48:35;22.02;;;15.00;;
21661;SDS011;10992;48.170;8.596;2024-01-10T13:51:02;21.90;;;14.18;;
21661;SDS011;10992;48.170;8.596;2024-01-10T13:53:29;20.60;;;14.52;;
21661;SDS011;10992;48.170;8.596;2024-01-10T13:55:56;22.10;;;15.50;;
21661;SDS011;10992;48.170;8.596;2024-01-10T13:58:24;20.60;;;13.68;;
21661;SDS011;10992;48.170;8.596;2024-01-10T14:00:51;20.15;;;13.70;;
21661;SDS011;10992;48.170;8.596;2024-01-10T14:03:18;20.27;;;14.30;;
21661;SDS011;10992;48.170;8.596;2024-01-10T14:05:45;22.00;;;14.52;;
21661;SDS011;10992;48.170;8.596;2024-01-10T14:08:12;24.63;;;15.23;;
21661;SDS011;10992;48.170;8.596;2024-01-10T14:10:39;25.70;;;16.45;;
21661;SDS011;10992;48.170;8.596;2024-01-10T14:13:08;27.60;;;17.00;;
21661;SDS011;10992;48.170;8.596;2024-01-10T14:15:35;25.63;;;17.35;;
21661;SDS011;10992;48.170;8.596;2024-01-10T14:18:02;30.00;;;18.17;;
21661;SDS011;10992;48.170;8.596;2024-01-10T14:20:29;23.75;;;17.17;;
21661;SDS011;10992;48.170;8.596;2024-01-10T14:22:56;26.88;;;17.35;;
21661;SDS011;10992;48.170;8.596;2024-01-10T14:25:26;27.73;;;17.98;;
21661;SDS011;10992;48.170;8.596;2024-01-10T14:27:53;29.27;;;18.65;;
21661;SDS011;10992;48.170;8.596;2024-01-10T14:30:20;30.38;;;18.88;;
21661;SDS011;10992;48.170;8.596;2024-01-10T14:32:47;28.90;;;19.15;;
21661;SDS011;10992;48.170;8.596;2024-01-10T14:35:14;30.30;;;19.02;;
21661;SDS011;10992;48.170;8.596;2024-01-10T14:37:42;28.65;;;18.95;;
21661;SDS011;10992;48.170;8.596;2024-01-10T14:40:09;31.63;;;20.23;;